PAJNPASI

Guest
Details From PAJN - Juneau Intl
To PASI - SITKA ROCKY GUTIERREZ
Flight Number -
Tags generated
Created
Modified
Stats Distance 84 nm / 156 km
Max Altitude 10,100 ft / 3,078 m
Waypoints 3
Social Downloads 0
Likes 0
Share VATSIM

Download

Looking for another format? Having issues loading an existing format? Contact us
Advertisement - Login to hide

Notes

Basic altitude profile: - Ascent Rate: 2500ft/min - Ascent Speed: 250kts - Cruise Altitude: 35000ft - Cruise Speed: 420kts - Descent Rate: 1500ft/min - Descent Speed: 250kts Options: - Use NATs: no - Use PACOTS: no - Use low airways: yes - Use high airways: no

Route

PAJN HOODS PASI

ID Type Via Altitude Latitude Longitude Leg Dist Tot Dist Heading (true) Name
O PAJN APT - 0 ft / 0 m 58.35496˚ -134.57628˚ - 0 nm - Juneau Intl
HOODS FIX - 10,100 ft / 3,078 m 57.74293˚ -134.68157˚ 36 nm 36 nm 185° / 185° -
O PASI APT - 0 ft / 0 m 57.04713˚ -135.36160˚ 47 nm 84 nm 208° / 207° SITKA ROCKY GUTIERREZ

Altitude Profile

Advertisement - Login to hide

PAJN

Details ICAO PAJN (JNU)
Name Juneau Intl
Region USA (Alaska)
Timezone America/Juneau (UTC-9.0)
Stats Elevation 21 ft / 6 m (AMSL)
Location 58.354964° -134.576278°
Runways 1
Magnetic Variation 19.149° E

METAR

PAJN 132353Z 11017KT 6SM RA BR FEW010 BKN043 OVC065 07/07 A3015

Decode

TAF

PAJN 132336Z 1400/1424 12020G30KT 6SM RA BR FEW010 BKN040 OVC060 WS020/14035KT FM140200 12020G30KT 4SM RA BR SCT010 BKN035 OVC060 WS020/14035KT FM140800 11015G25KT 4SM RA BR SCT015 BKN040 OVC060 WS020/15035KT FM142200 11010G18KT 6SM -SHRA BR OVC030

Decode

Departure Runways

ID Width Length Bearing (true) Bearing (mag) Surface Threshold Offset Overrun Length
08 150 ft / 46 m 8,430 ft / 2,570 m 104.87° 85.72° Asphalt 0 ft / 0 m 450 ft / 137 m
26 150 ft / 46 m 8,430 ft / 2,570 m 284.90° 265.75° Asphalt 0 ft / 0 m 225 ft / 69 m

PASI

Details ICAO PASI (SIT)
Name SITKA ROCKY GUTIERREZ
Region USA (Alaska)
Timezone America/Juneau (UTC-9.0)
Stats Elevation 21 ft / 6 m (AMSL)
Location 57.047128° -135.361597°
Runways 1
Magnetic Variation 18.752° E

METAR

PASI 132353Z 13015G22KT 10SM -RA OVC042 10/07 A3008

Decode

TAF

PASI 132336Z 1400/1424 11025G35KT 5SM -RA OVC035 WS020/16050KT FM140300 13025G35KT 4SM RA BR SCT015 OVC030 WS020/15050KT FM141300 13020G30KT 4SM -RA BR SCT015 OVC030 WS020/15045KT FM141600 13015G25KT 4SM -RA BR OVC025 WS020/15035KT FM142100 23010KT P6SM -SHRA OVC025

Decode

Destination Runways

ID Width Length Bearing (true) Bearing (mag) Surface Threshold Offset Overrun Length
11 150 ft / 46 m 6,485 ft / 1,977 m 135.57° 116.82° Asphalt 0 ft / 0 m 0 ft / 0 m
29 150 ft / 46 m 6,485 ft / 1,977 m 315.59° 296.84° Asphalt 0 ft / 0 m 0 ft / 0 m

Approach Navaids

Runway Type Ident Frequency Range Bearing (true) Bearing (mag) Slope Elevation
11 Localiser ISIT 108.90 MHz 18 nm / 33 km 143.51° 124.75° - 15 ft / 5 m (AMSL)
11 DME ISIT 108.90 MHz 18 nm / 33 km - - - 34 ft / 10 m (AMSL)

Popular Alternatives